sensor_id;sensor_type;location;lat;lon;timestamp;temperature;humidity
8043;DHT22;4064;48.132;11.366;2023-06-19T00:01:48;18.60;65.70
8043;DHT22;4064;48.132;11.366;2023-06-19T00:04:14;18.60;63.00
8043;DHT22;4064;48.132;11.366;2023-06-19T00:06:39;18.60;63.60
8043;DHT22;4064;48.132;11.366;2023-06-19T00:09:07;18.70;63.50
8043;DHT22;4064;48.132;11.366;2023-06-19T00:11:32;18.70;62.70
8043;DHT22;4064;48.132;11.366;2023-06-19T00:13:58;18.70;62.30
8043;DHT22;4064;48.132;11.366;2023-06-19T00:16:24;18.70;63.00
8043;DHT22;4064;48.132;11.366;2023-06-19T00:18:51;18.60;64.60
8043;DHT22;4064;48.132;11.366;2023-06-19T00:21:22;18.50;63.40
8043;DHT22;4064;48.132;11.366;2023-06-19T00:23:50;18.60;62.80
8043;DHT22;4064;48.132;11.366;2023-06-19T00:26:16;18.50;63.40
8043;DHT22;4064;48.132;11.366;2023-06-19T00:28:42;18.50;63.00
8043;DHT22;4064;48.132;11.366;2023-06-19T00:31:10;18.50;64.50
8043;DHT22;4064;48.132;11.366;2023-06-19T00:33:39;18.60;64.80
8043;DHT22;4064;48.132;11.366;2023-06-19T00:36:09;18.50;65.20
8043;DHT22;4064;48.132;11.366;2023-06-19T00:38:36;18.40;66.10
8043;DHT22;4064;48.132;11.366;2023-06-19T00:41:03;18.40;66.20
8043;DHT22;4064;48.132;11.366;2023-06-19T00:43:28;18.40;66.40
8043;DHT22;4064;48.132;11.366;2023-06-19T00:45:56;18.60;66.20
8043;DHT22;4064;48.132;11.366;2023-06-19T00:48:22;18.50;66.10
8043;DHT22;4064;48.132;11.366;2023-06-19T00:50:49;18.60;66.00
8043;DHT22;4064;48.132;11.366;2023-06-19T00:53:15;18.50;66.50
8043;DHT22;4064;48.132;11.366;2023-06-19T00:55:42;18.40;66.20
8043;DHT22;4064;48.132;11.366;2023-06-19T00:58:08;18.50;66.90
8043;DHT22;4064;48.132;11.366;2023-06-19T01:00:34;18.40;67.50
8043;DHT22;4064;48.132;11.366;2023-06-19T01:03:00;18.50;67.40
8043;DHT22;4064;48.132;11.366;2023-06-19T01:05:26;18.60;68.10
8043;DHT22;4064;48.132;11.366;2023-06-19T01:08:12;18.60;67.40
8043;DHT22;4064;48.132;11.366;2023-06-19T01:10:45;18.50;67.80
8043;DHT22;4064;48.132;11.366;2023-06-19T01:16:09;18.50;67.00
8043;DHT22;4064;48.132;11.366;2023-06-19T01:18:36;18.60;67.50
8043;DHT22;4064;48.132;11.366;2023-06-19T01:21:16;18.60;66.80
8043;DHT22;4064;48.132;11.366;2023-06-19T01:23:43;18.70;64.40
8043;DHT22;4064;48.132;11.366;2023-06-19T01:26:10;18.80;64.00
8043;DHT22;4064;48.132;11.366;2023-06-19T01:28:36;18.80;64.90
8043;DHT22;4064;48.132;11.366;2023-06-19T01:31:11;18.70;66.70
8043;DHT22;4064;48.132;11.366;2023-06-19T01:33:38;18.70;67.40
8043;DHT22;4064;48.132;11.366;2023-06-19T01:36:05;18.50;67.90
8043;DHT22;4064;48.132;11.366;2023-06-19T01:38:33;18.70;68.40
8043;DHT22;4064;48.132;11.366;2023-06-19T01:41:01;18.60;67.90
8043;DHT22;4064;48.132;11.366;2023-06-19T01:43:29;18.70;67.90
8043;DHT22;4064;48.132;11.366;2023-06-19T01:45:57;18.60;68.90
8043;DHT22;4064;48.132;11.366;2023-06-19T01:48:23;18.40;69.90
8043;DHT22;4064;48.132;11.366;2023-06-19T01:50:50;18.50;67.50
8043;DHT22;4064;48.132;11.366;2023-06-19T01:53:16;18.60;69.70
8043;DHT22;4064;48.132;11.366;2023-06-19T01:55:42;18.70;68.10
8043;DHT22;4064;48.132;11.366;2023-06-19T01:58:08;18.70;67.90
8043;DHT22;4064;48.132;11.366;2023-06-19T02:00:34;18.80;68.60
8043;DHT22;4064;48.132;11.366;2023-06-19T02:03:03;18.60;69.60
8043;DHT22;4064;48.132;11.366;2023-06-19T02:05:30;18.60;69.80
8043;DHT22;4064;48.132;11.366;2023-06-19T02:07:56;18.70;68.70
8043;DHT22;4064;48.132;11.366;2023-06-19T02:10:22;18.80;67.60
8043;DHT22;4064;48.132;11.366;2023-06-19T02:12:48;18.80;68.70
8043;DHT22;4064;48.132;11.366;2023-06-19T02:15:14;18.80;66.80
8043;DHT22;4064;48.132;11.366;2023-06-19T02:17:39;18.80;67.00
8043;DHT22;4064;48.132;11.366;2023-06-19T02:20:08;18.80;67.00
8043;DHT22;4064;48.132;11.366;2023-06-19T02:22:38;18.80;67.10
8043;DHT22;4064;48.132;11.366;2023-06-19T02:25:04;18.70;67.00
8043;DHT22;4064;48.132;11.366;2023-06-19T02:27:30;18.80;67.30
8043;DHT22;4064;48.132;11.366;2023-06-19T02:29:56;18.80;66.70
8043;DHT22;4064;48.132;11.366;2023-06-19T02:32:21;18.80;66.80
8043;DHT22;4064;48.132;11.366;2023-06-19T02:34:47;18.80;66.90
8043;DHT22;4064;48.132;11.366;2023-06-19T02:37:13;18.80;67.40
8043;DHT22;4064;48.132;11.366;2023-06-19T02:39:39;18.80;67.30
8043;DHT22;4064;48.132;11.366;2023-06-19T02:42:05;18.80;67.70
8043;DHT22;4064;48.132;11.366;2023-06-19T02:44:31;18.80;68.20
8043;DHT22;4064;48.132;11.366;2023-06-19T02:46:57;18.80;68.90
8043;DHT22;4064;48.132;11.366;2023-06-19T02:49:23;18.80;68.90
8043;DHT22;4064;48.132;11.366;2023-06-19T02:51:49;18.80;69.30
8043;DHT22;4064;48.132;11.366;2023-06-19T02:54:14;18.80;68.60
8043;DHT22;4064;48.132;11.366;2023-06-19T02:56:40;18.80;68.60
8043;DHT22;4064;48.132;11.366;2023-06-19T02:59:06;18.80;69.00
8043;DHT22;4064;48.132;11.366;2023-06-19T03:01:32;18.80;68.40
8043;DHT22;4064;48.132;11.366;2023-06-19T03:03:59;18.70;68.60
8043;DHT22;4064;48.132;11.366;2023-06-19T03:06:25;18.70;68.80
8043;DHT22;4064;48.132;11.366;2023-06-19T03:08:51;18.70;68.80
8043;DHT22;4064;48.132;11.366;2023-06-19T03:11:17;18.80;68.80
8043;DHT22;4064;48.132;11.366;2023-06-19T03:13:53;18.80;68.90
8043;DHT22;4064;48.132;11.366;2023-06-19T03:16:20;18.80;69.70
8043;DHT22;4064;48.132;11.366;2023-06-19T03:18:46;18.80;70.00
8043;DHT22;4064;48.132;11.366;2023-06-19T03:21:13;18.80;70.90
8043;DHT22;4064;48.132;11.366;2023-06-19T03:23:39;18.80;70.90
8043;DHT22;4064;48.132;11.366;2023-06-19T03:26:07;18.80;71.20
8043;DHT22;4064;48.132;11.366;2023-06-19T03:28:33;18.80;71.30
8043;DHT22;4064;48.132;11.366;2023-06-19T03:30:58;18.80;71.30
8043;DHT22;4064;48.132;11.366;2023-06-19T03:33:24;18.90;71.20
8043;DHT22;4064;48.132;11.366;2023-06-19T03:35:50;18.90;72.20
8043;DHT22;4064;48.132;11.366;2023-06-19T03:38:16;18.90;71.20
8043;DHT22;4064;48.132;11.366;2023-06-19T03:40:42;18.90;71.50
8043;DHT22;4064;48.132;11.366;2023-06-19T03:43:08;19.00;71.60
8043;DHT22;4064;48.132;11.366;2023-06-19T03:45:33;19.00;71.60
8043;DHT22;4064;48.132;11.366;2023-06-19T03:47:59;19.00;72.30
8043;DHT22;4064;48.132;11.366;2023-06-19T03:50:25;18.90;74.00
8043;DHT22;4064;48.132;11.366;2023-06-19T03:52:51;18.80;73.50
8043;DHT22;4064;48.132;11.366;2023-06-19T03:55:17;18.90;75.00
8043;DHT22;4064;48.132;11.366;2023-06-19T03:57:43;18.80;75.40
8043;DHT22;4064;48.132;11.366;2023-06-19T04:00:08;18.80;76.20
8043;DHT22;4064;48.132;11.366;2023-06-19T04:02:36;18.90;73.50
8043;DHT22;4064;48.132;11.366;2023-06-19T04:05:02;19.00;72.90
8043;DHT22;4064;48.132;11.366;2023-06-19T04:07:28;19.10;73.10
8043;DHT22;4064;48.132;11.366;2023-06-19T04:09:55;19.20;72.40
8043;DHT22;4064;48.132;11.366;2023-06-19T04:12:21;19.20;73.20
8043;DHT22;4064;48.132;11.366;2023-06-19T04:14:46;19.20;72.40
8043;DHT22;4064;48.132;11.366;2023-06-19T04:17:13;19.30;72.00
8043;DHT22;4064;48.132;11.366;2023-06-19T04:19:38;19.20;72.10
8043;DHT22;4064;48.132;11.366;2023-06-19T04:22:04;19.30;73.30
8043;DHT22;4064;48.132;11.366;2023-06-19T04:24:30;19.20;72.90
8043;DHT22;4064;48.132;11.366;2023-06-19T04:26:56;19.30;73.40
8043;DHT22;4064;48.132;11.366;2023-06-19T04:29:22;19.30;72.60
8043;DHT22;4064;48.132;11.366;2023-06-19T04:31:47;19.30;72.60
8043;DHT22;4064;48.132;11.366;2023-06-19T04:34:16;19.30;74.90
8043;DHT22;4064;48.132;11.366;2023-06-19T04:36:42;19.20;76.40
8043;DHT22;4064;48.132;11.366;2023-06-19T04:39:09;19.20;76.20
8043;DHT22;4064;48.132;11.366;2023-06-19T04:41:35;19.30;75.20
8043;DHT22;4064;48.132;11.366;2023-06-19T04:44:07;19.30;75.00
8043;DHT22;4064;48.132;11.366;2023-06-19T04:46:33;19.30;76.10
8043;DHT22;4064;48.132;11.366;2023-06-19T04:48:59;19.30;77.10
8043;DHT22;4064;48.132;11.366;2023-06-19T04:51:25;19.30;77.00
8043;DHT22;4064;48.132;11.366;2023-06-19T04:53:52;19.30;77.30
8043;DHT22;4064;48.132;11.366;2023-06-19T04:56:18;19.40;75.80
8043;DHT22;4064;48.132;11.366;2023-06-19T04:58:43;19.60;75.40
8043;DHT22;4064;48.132;11.366;2023-06-19T05:01:15;19.60;74.50
8043;DHT22;4064;48.132;11.366;2023-06-19T05:03:43;19.80;73.00
8043;DHT22;4064;48.132;11.366;2023-06-19T05:06:09;20.00;73.30
8043;DHT22;4064;48.132;11.366;2023-06-19T05:08:35;20.10;72.80
8043;DHT22;4064;48.132;11.366;2023-06-19T05:11:01;20.20;71.60
8043;DHT22;4064;48.132;11.366;2023-06-19T05:13:26;20.30;71.40
8043;DHT22;4064;48.132;11.366;2023-06-19T05:15:52;20.50;71.50
8043;DHT22;4064;48.132;11.366;2023-06-19T05:18:18;20.60;70.90
8043;DHT22;4064;48.132;11.366;2023-06-19T05:20:44;20.60;70.70
8043;DHT22;4064;48.132;11.366;2023-06-19T05:23:10;20.70;70.70
8043;DHT22;4064;48.132;11.366;2023-06-19T05:25:36;20.80;70.80
8043;DHT22;4064;48.132;11.366;2023-06-19T05:28:02;20.80;71.00
8043;DHT22;4064;48.132;11.366;2023-06-19T05:30:27;20.80;70.20
8043;DHT22;4064;48.132;11.366;2023-06-19T05:32:53;20.90;70.00
8043;DHT22;4064;48.132;11.366;2023-06-19T05:35:19;21.00;69.80
8043;DHT22;4064;48.132;11.366;2023-06-19T05:37:45;20.90;69.80
8043;DHT22;4064;48.132;11.366;2023-06-19T05:40:11;21.00;69.60
8043;DHT22;4064;48.132;11.366;2023-06-19T05:42:37;21.00;69.20
8043;DHT22;4064;48.132;11.366;2023-06-19T05:45:03;21.10;70.00
8043;DHT22;4064;48.132;11.366;2023-06-19T05:47:29;21.00;70.90
8043;DHT22;4064;48.132;11.366;2023-06-19T05:49:56;21.00;70.70
8043;DHT22;4064;48.132;11.366;2023-06-19T05:52:23;21.10;70.00
8043;DHT22;4064;48.132;11.366;2023-06-19T05:54:49;21.20;69.50
8043;DHT22;4064;48.132;11.366;2023-06-19T05:57:14;21.10;71.50
8043;DHT22;4064;48.132;11.366;2023-06-19T05:59:47;21.20;69.90
8043;DHT22;4064;48.132;11.366;2023-06-19T06:02:13;21.30;70.40
8043;DHT22;4064;48.132;11.366;2023-06-19T06:04:38;21.30;69.60
8043;DHT22;4064;48.132;11.366;2023-06-19T06:07:04;21.40;69.90
8043;DHT22;4064;48.132;11.366;2023-06-19T06:09:30;21.50;70.40
8043;DHT22;4064;48.132;11.366;2023-06-19T06:11:56;21.60;69.80
8043;DHT22;4064;48.132;11.366;2023-06-19T06:14:23;21.70;70.50
8043;DHT22;4064;48.132;11.366;2023-06-19T06:16:48;21.80;69.30
8043;DHT22;4064;48.132;11.366;2023-06-19T06:19:14;22.00;69.70
8043;DHT22;4064;48.132;11.366;2023-06-19T06:21:40;22.30;67.90
8043;DHT22;4064;48.132;11.366;2023-06-19T06:24:06;22.40;67.40
8043;DHT22;4064;48.132;11.366;2023-06-19T06:26:32;22.50;67.30
8043;DHT22;4064;48.132;11.366;2023-06-19T06:28:58;22.50;67.60
8043;DHT22;4064;48.132;11.366;2023-06-19T06:31:24;22.50;69.00
8043;DHT22;4064;48.132;11.366;2023-06-19T06:33:50;22.60;67.10
8043;DHT22;4064;48.132;11.366;2023-06-19T06:36:16;22.70;68.00
8043;DHT22;4064;48.132;11.366;2023-06-19T06:38:42;22.80;67.30
8043;DHT22;4064;48.132;11.366;2023-06-19T06:41:08;22.80;66.20
8043;DHT22;4064;48.132;11.366;2023-06-19T06:43:34;22.90;67.00
8043;DHT22;4064;48.132;11.366;2023-06-19T06:46:00;22.90;67.80
8043;DHT22;4064;48.132;11.366;2023-06-19T06:48:26;22.80;66.90
8043;DHT22;4064;48.132;11.366;2023-06-19T06:50:51;22.80;67.10
8043;DHT22;4064;48.132;11.366;2023-06-19T06:53:26;22.80;68.00
8043;DHT22;4064;48.132;11.366;2023-06-19T06:55:53;22.80;67.60
8043;DHT22;4064;48.132;11.366;2023-06-19T06:58:19;22.80;69.20
8043;DHT22;4064;48.132;11.366;2023-06-19T07:00:45;22.90;67.60
8043;DHT22;4064;48.132;11.366;2023-06-19T07:03:11;23.10;67.10
8043;DHT22;4064;48.132;11.366;2023-06-19T07:05:37;23.30;67.50
8043;DHT22;4064;48.132;11.366;2023-06-19T07:08:02;23.30;67.00
8043;DHT22;4064;48.132;11.366;2023-06-19T07:10:30;23.40;67.50
8043;DHT22;4064;48.132;11.366;2023-06-19T07:12:55;23.50;66.50
8043;DHT22;4064;48.132;11.366;2023-06-19T07:15:21;23.80;66.90
8043;DHT22;4064;48.132;11.366;2023-06-19T07:17:47;23.90;65.20
8043;DHT22;4064;48.132;11.366;2023-06-19T07:20:14;23.70;65.90
8043;DHT22;4064;48.132;11.366;2023-06-19T07:22:41;23.60;65.90
8043;DHT22;4064;48.132;11.366;2023-06-19T07:25:07;23.50;65.50
8043;DHT22;4064;48.132;11.366;2023-06-19T07:27:33;23.60;66.30
8043;DHT22;4064;48.132;11.366;2023-06-19T07:29:59;23.60;65.90
8043;DHT22;4064;48.132;11.366;2023-06-19T07:32:25;23.40;66.60
8043;DHT22;4064;48.132;11.366;2023-06-19T07:34:51;23.40;66.90
8043;DHT22;4064;48.132;11.366;2023-06-19T07:37:17;23.90;66.70
8043;DHT22;4064;48.132;11.366;2023-06-19T07:39:52;24.60;64.50
8043;DHT22;4064;48.132;11.366;2023-06-19T07:42:19;25.20;62.40
8043;DHT22;4064;48.132;11.366;2023-06-19T07:44:45;25.70;61.60
8043;DHT22;4064;48.132;11.366;2023-06-19T07:47:12;25.80;60.20
8043;DHT22;4064;48.132;11.366;2023-06-19T07:49:39;25.80;60.00
8043;DHT22;4064;48.132;11.366;2023-06-19T07:52:05;26.30;59.30
8043;DHT22;4064;48.132;11.366;2023-06-19T07:54:33;26.50;59.60
8043;DHT22;4064;48.132;11.366;2023-06-19T07:56:59;26.90;60.10
8043;DHT22;4064;48.132;11.366;2023-06-19T07:59:24;27.20;59.00
8043;DHT22;4064;48.132;11.366;2023-06-19T08:01:50;27.30;58.00
8043;DHT22;4064;48.132;11.366;2023-06-19T08:04:16;27.50;56.80
8043;DHT22;4064;48.132;11.366;2023-06-19T08:06:41;27.60;56.80
8043;DHT22;4064;48.132;11.366;2023-06-19T08:09:07;27.80;56.20
8043;DHT22;4064;48.132;11.366;2023-06-19T08:11:33;28.00;56.40
8043;DHT22;4064;48.132;11.366;2023-06-19T08:13:59;28.30;56.40
8043;DHT22;4064;48.132;11.366;2023-06-19T08:16:25;28.70;55.00
8043;DHT22;4064;48.132;11.366;2023-06-19T08:18:51;29.10;53.60
8043;DHT22;4064;48.132;11.366;2023-06-19T08:21:17;29.30;54.40
8043;DHT22;4064;48.132;11.366;2023-06-19T08:23:43;29.40;53.30
8043;DHT22;4064;48.132;11.366;2023-06-19T08:26:10;29.40;52.70
8043;DHT22;4064;48.132;11.366;2023-06-19T08:28:35;29.20;52.70
8043;DHT22;4064;48.132;11.366;2023-06-19T08:31:01;29.60;51.10
8043;DHT22;4064;48.132;11.366;2023-06-19T08:33:27;29.90;50.90
8043;DHT22;4064;48.132;11.366;2023-06-19T08:35:52;30.10;50.40
8043;DHT22;4064;48.132;11.366;2023-06-19T08:38:18;30.00;50.50
8043;DHT22;4064;48.132;11.366;2023-06-19T08:40:44;30.10;50.70
8043;DHT22;4064;48.132;11.366;2023-06-19T08:43:11;30.60;51.10
8043;DHT22;4064;48.132;11.366;2023-06-19T08:45:37;30.90;50.10
8043;DHT22;4064;48.132;11.366;2023-06-19T08:48:04;30.00;50.30
8043;DHT22;4064;48.132;11.366;2023-06-19T08:50:31;29.50;51.10
8043;DHT22;4064;48.132;11.366;2023-06-19T08:52:57;28.90;53.70
8043;DHT22;4064;48.132;11.366;2023-06-19T08:55:23;28.40;53.80
8043;DHT22;4064;48.132;11.366;2023-06-19T08:57:49;28.00;54.40
8043;DHT22;4064;48.132;11.366;2023-06-19T09:00:26;27.80;54.00
8043;DHT22;4064;48.132;11.366;2023-06-19T09:02:57;27.90;54.30
8043;DHT22;4064;48.132;11.366;2023-06-19T09:05:23;27.70;54.10
8043;DHT22;4064;48.132;11.366;2023-06-19T09:07:56;27.60;55.30
8043;DHT22;4064;48.132;11.366;2023-06-19T09:10:22;27.40;55.40
8043;DHT22;4064;48.132;11.366;2023-06-19T09:13:00;27.20;56.40
8043;DHT22;4064;48.132;11.366;2023-06-19T09:15:32;27.30;55.70
8043;DHT22;4064;48.132;11.366;2023-06-19T09:18:09;27.40;56.40
8043;DHT22;4064;48.132;11.366;2023-06-19T09:20:38;27.40;56.90
8043;DHT22;4064;48.132;11.366;2023-06-19T09:23:07;27.40;56.10
8043;DHT22;4064;48.132;11.366;2023-06-19T09:25:46;27.90;56.40
8043;DHT22;4064;48.132;11.366;2023-06-19T09:28:21;28.70;55.60
8043;DHT22;4064;48.132;11.366;2023-06-19T09:30:58;29.20;53.50
8043;DHT22;4064;48.132;11.366;2023-06-19T09:33:28;29.30;53.10
8043;DHT22;4064;48.132;11.366;2023-06-19T09:35:56;29.90;52.40
8043;DHT22;4064;48.132;11.366;2023-06-19T09:38:27;29.90;51.80
8043;DHT22;4064;48.132;11.366;2023-06-19T09:40:53;29.90;51.60
8043;DHT22;4064;48.132;11.366;2023-06-19T09:43:24;30.40;50.50
8043;DHT22;4064;48.132;11.366;2023-06-19T09:45:50;30.40;49.50
8043;DHT22;4064;48.132;11.366;2023-06-19T09:48:22;30.10;50.70
8043;DHT22;4064;48.132;11.366;2023-06-19T09:50:51;30.30;50.80
8043;DHT22;4064;48.132;11.366;2023-06-19T09:53:19;30.40;51.00
8043;DHT22;4064;48.132;11.366;2023-06-19T09:55:48;30.30;52.10
8043;DHT22;4064;48.132;11.366;2023-06-19T09:58:17;30.00;49.60
8043;DHT22;4064;48.132;11.366;2023-06-19T10:00:44;30.20;48.80
8043;DHT22;4064;48.132;11.366;2023-06-19T10:03:13;30.50;47.30
8043;DHT22;4064;48.132;11.366;2023-06-19T10:05:39;30.70;48.40
8043;DHT22;4064;48.132;11.366;2023-06-19T10:08:08;31.00;48.00
8043;DHT22;4064;48.132;11.366;2023-06-19T10:10:35;31.00;47.70
8043;DHT22;4064;48.132;11.366;2023-06-19T10:13:16;31.30;47.10
8043;DHT22;4064;48.132;11.366;2023-06-19T10:15:44;31.50;48.00
8043;DHT22;4064;48.132;11.366;2023-06-19T10:18:18;31.30;45.50
8043;DHT22;4064;48.132;11.366;2023-06-19T10:20:45;31.70;46.70
8043;DHT22;4064;48.132;11.366;2023-06-19T10:23:12;31.30;45.80
8043;DHT22;4064;48.132;11.366;2023-06-19T10:25:42;31.00;45.80
8043;DHT22;4064;48.132;11.366;2023-06-19T10:28:22;31.70;45.80
8043;DHT22;4064;48.132;11.366;2023-06-19T10:30:54;31.60;44.60
8043;DHT22;4064;48.132;11.366;2023-06-19T10:33:24;31.50;46.00
8043;DHT22;4064;48.132;11.366;2023-06-19T10:35:51;31.90;46.30
8043;DHT22;4064;48.132;11.366;2023-06-19T10:38:17;32.40;45.90
8043;DHT22;4064;48.132;11.366;2023-06-19T10:40:43;31.60;47.00
8043;DHT22;4064;48.132;11.366;2023-06-19T10:43:10;31.20;45.60
8043;DHT22;4064;48.132;11.366;2023-06-19T10:45:36;31.10;45.50
8043;DHT22;4064;48.132;11.366;2023-06-19T10:48:03;31.60;47.20
8043;DHT22;4064;48.132;11.366;2023-06-19T10:50:30;31.90;47.50
8043;DHT22;4064;48.132;11.366;2023-06-19T10:52:58;31.60;46.00
8043;DHT22;4064;48.132;11.366;2023-06-19T10:55:24;31.90;46.40
8043;DHT22;4064;48.132;11.366;2023-06-19T10:57:50;31.90;47.20
8043;DHT22;4064;48.132;11.366;2023-06-19T11:00:30;32.40;46.30
8043;DHT22;4064;48.132;11.366;2023-06-19T11:02:57;32.40;45.10
8043;DHT22;4064;48.132;11.366;2023-06-19T11:05:24;31.80;46.10
8043;DHT22;4064;48.132;11.366;2023-06-19T11:07:59;31.20;45.60
8043;DHT22;4064;48.132;11.366;2023-06-19T11:10:27;30.90;46.90
8043;DHT22;4064;48.132;11.366;2023-06-19T11:12:55;31.10;48.30
8043;DHT22;4064;48.132;11.366;2023-06-19T11:15:28;31.40;46.10
8043;DHT22;4064;48.132;11.366;2023-06-19T11:17:55;32.00;47.00
8043;DHT22;4064;48.132;11.366;2023-06-19T11:20:21;32.10;46.30
8043;DHT22;4064;48.132;11.366;2023-06-19T11:22:46;32.30;46.40
8043;DHT22;4064;48.132;11.366;2023-06-19T11:25:12;32.40;46.60
8043;DHT22;4064;48.132;11.366;2023-06-19T11:27:39;32.60;45.40
8043;DHT22;4064;48.132;11.366;2023-06-19T11:30:05;32.40;45.60
8043;DHT22;4064;48.132;11.366;2023-06-19T11:32:37;32.10;45.60
8043;DHT22;4064;48.132;11.366;2023-06-19T11:35:11;31.60;47.20
8043;DHT22;4064;48.132;11.366;2023-06-19T11:37:39;31.70;46.50
8043;DHT22;4064;48.132;11.366;2023-06-19T11:40:05;31.90;47.40
8043;DHT22;4064;48.132;11.366;2023-06-19T11:42:52;31.40;47.30
8043;DHT22;4064;48.132;11.366;2023-06-19T11:45:17;31.90;47.90
8043;DHT22;4064;48.132;11.366;2023-06-19T11:47:46;32.10;45.30
8043;DHT22;4064;48.132;11.366;2023-06-19T11:50:15;32.00;45.70
8043;DHT22;4064;48.132;11.366;2023-06-19T11:52:44;32.10;45.80
8043;DHT22;4064;48.132;11.366;2023-06-19T11:55:10;32.20;44.90
8043;DHT22;4064;48.132;11.366;2023-06-19T11:57:36;32.30;44.30
8043;DHT22;4064;48.132;11.366;2023-06-19T12:00:02;32.50;45.40
8043;DHT22;4064;48.132;11.366;2023-06-19T12:02:32;32.70;45.70
8043;DHT22;4064;48.132;11.366;2023-06-19T12:04:58;32.70;44.50
8043;DHT22;4064;48.132;11.366;2023-06-19T12:07:24;32.90;45.20
8043;DHT22;4064;48.132;11.366;2023-06-19T12:09:51;32.60;43.60
8043;DHT22;4064;48.132;11.366;2023-06-19T12:12:17;32.70;43.80
8043;DHT22;4064;48.132;11.366;2023-06-19T12:14:43;32.70;43.70
8043;DHT22;4064;48.132;11.366;2023-06-19T12:17:10;33.10;44.20
8043;DHT22;4064;48.132;11.366;2023-06-19T12:19:36;32.80;44.40
8043;DHT22;4064;48.132;11.366;2023-06-19T12:22:03;32.30;45.20
8043;DHT22;4064;48.132;11.366;2023-06-19T12:24:29;32.90;44.60
8043;DHT22;4064;48.132;11.366;2023-06-19T12:26:54;33.20;42.80
8043;DHT22;4064;48.132;11.366;2023-06-19T12:29:20;33.00;42.70
8043;DHT22;4064;48.132;11.366;2023-06-19T12:31:47;33.10;41.80
8043;DHT22;4064;48.132;11.366;2023-06-19T12:34:13;33.30;42.30
8043;DHT22;4064;48.132;11.366;2023-06-19T12:36:42;33.30;42.20
8043;DHT22;4064;48.132;11.366;2023-06-19T12:39:07;32.90;41.40
8043;DHT22;4064;48.132;11.366;2023-06-19T12:41:40;32.70;41.70
8043;DHT22;4064;48.132;11.366;2023-06-19T12:44:05;32.50;43.70
8043;DHT22;4064;48.132;11.366;2023-06-19T12:46:32;32.40;43.80
8043;DHT22;4064;48.132;11.366;2023-06-19T12:48:58;32.60;44.30
8043;DHT22;4064;48.132;11.366;2023-06-19T12:51:23;33.20;43.20
8043;DHT22;4064;48.132;11.366;2023-06-19T12:53:49;33.40;43.40
8043;DHT22;4064;48.132;11.366;2023-06-19T12:56:15;33.90;42.00
8043;DHT22;4064;48.132;11.366;2023-06-19T12:58:40;33.80;41.80
8043;DHT22;4064;48.132;11.366;2023-06-19T13:01:06;33.30;42.40
8043;DHT22;4064;48.132;11.366;2023-06-19T13:03:32;33.60;42.20
8043;DHT22;4064;48.132;11.366;2023-06-19T13:05:58;33.30;41.00
8043;DHT22;4064;48.132;11.366;2023-06-19T13:08:23;33.30;41.40
8043;DHT22;4064;48.132;11.366;2023-06-19T13:10:49;33.10;41.80
8043;DHT22;4064;48.132;11.366;2023-06-19T13:13:15;33.00;40.70
8043;DHT22;4064;48.132;11.366;2023-06-19T13:15:40;33.50;42.40
8043;DHT22;4064;48.132;11.366;2023-06-19T13:18:06;33.50;41.20
8043;DHT22;4064;48.132;11.366;2023-06-19T13:20:32;32.30;43.70
8043;DHT22;4064;48.132;11.366;2023-06-19T13:22:57;32.10;43.40
8043;DHT22;4064;48.132;11.366;2023-06-19T13:25:23;31.80;44.90
8043;DHT22;4064;48.132;11.366;2023-06-19T13:27:49;31.90;44.70
8043;DHT22;4064;48.132;11.366;2023-06-19T13:30:15;32.00;45.50
8043;DHT22;4064;48.132;11.366;2023-06-19T13:32:41;31.90;45.00
8043;DHT22;4064;48.132;11.366;2023-06-19T13:35:08;32.80;43.40
8043;DHT22;4064;48.132;11.366;2023-06-19T13:37:37;32.50;42.90
8043;DHT22;4064;48.132;11.366;2023-06-19T13:40:07;32.30;43.30
8043;DHT22;4064;48.132;11.366;2023-06-19T13:42:33;32.40;43.90
8043;DHT22;4064;48.132;11.366;2023-06-19T13:45:01;32.70;44.30
8043;DHT22;4064;48.132;11.366;2023-06-19T13:47:27;32.20;44.10
8043;DHT22;4064;48.132;11.366;2023-06-19T13:49:53;32.10;44.20
8043;DHT22;4064;48.132;11.366;2023-06-19T13:52:19;32.30;42.20
8043;DHT22;4064;48.132;11.366;2023-06-19T13:54:45;32.40;43.30
8043;DHT22;4064;48.132;11.366;2023-06-19T13:57:11;32.60;41.90
8043;DHT22;4064;48.132;11.366;2023-06-19T13:59:37;32.50;41.60
8043;DHT22;4064;48.132;11.366;2023-06-19T14:02:03;32.60;42.40
8043;DHT22;4064;48.132;11.366;2023-06-19T14:04:28;32.90;43.10
8043;DHT22;4064;48.132;11.366;2023-06-19T14:06:54;32.90;41.70
8043;DHT22;4064;48.132;11.366;2023-06-19T14:09:20;32.90;43.50
8043;DHT22;4064;48.132;11.366;2023-06-19T14:11:46;32.30;44.20
8043;DHT22;4064;48.132;11.366;2023-06-19T14:14:12;31.90;43.90
8043;DHT22;4064;48.132;11.366;2023-06-19T14:16:37;32.50;42.90
8043;DHT22;4064;48.132;11.366;2023-06-19T14:19:03;32.10;44.00
8043;DHT22;4064;48.132;11.366;2023-06-19T14:21:29;31.30;44.70
8043;DHT22;4064;48.132;11.366;2023-06-19T14:23:54;31.50;43.80
8043;DHT22;4064;48.132;11.366;2023-06-19T14:26:20;31.60;44.80
8043;DHT22;4064;48.132;11.366;2023-06-19T14:28:46;31.30;44.30
8043;DHT22;4064;48.132;11.366;2023-06-19T14:31:12;31.60;44.20
8043;DHT22;4064;48.132;11.366;2023-06-19T14:33:37;31.40;44.80
8043;DHT22;4064;48.132;11.366;2023-06-19T14:36:04;31.00;44.00
8043;DHT22;4064;48.132;11.366;2023-06-19T14:38:29;31.20;45.20
8043;DHT22;4064;48.132;11.366;2023-06-19T14:41:00;31.20;44.90
8043;DHT22;4064;48.132;11.366;2023-06-19T14:43:29;31.10;45.30
8043;DHT22;4064;48.132;11.366;2023-06-19T14:45:55;31.00;45.00
8043;DHT22;4064;48.132;11.366;2023-06-19T14:48:21;31.00;44.80
8043;DHT22;4064;48.132;11.366;2023-06-19T14:50:47;31.20;45.00
8043;DHT22;4064;48.132;11.366;2023-06-19T14:53:13;31.30;45.00
8043;DHT22;4064;48.132;11.366;2023-06-19T14:55:38;30.50;46.00
8043;DHT22;4064;48.132;11.366;2023-06-19T14:58:08;30.30;45.80
8043;DHT22;4064;48.132;11.366;2023-06-19T15:00:34;30.30;46.20
8043;DHT22;4064;48.132;11.366;2023-06-19T15:03:04;30.40;45.40
8043;DHT22;4064;48.132;11.366;2023-06-19T15:05:30;30.20;45.70
8043;DHT22;4064;48.132;11.366;2023-06-19T15:07:56;30.00;46.30
8043;DHT22;4064;48.132;11.366;2023-06-19T15:10:21;30.00;46.20
8043;DHT22;4064;48.132;11.366;2023-06-19T15:12:47;30.30;45.30
8043;DHT22;4064;48.132;11.366;2023-06-19T15:15:13;30.50;45.50
8043;DHT22;4064;48.132;11.366;2023-06-19T15:17:38;30.30;45.30
8043;DHT22;4064;48.132;11.366;2023-06-19T15:20:05;30.20;45.60
8043;DHT22;4064;48.132;11.366;2023-06-19T15:22:31;30.40;46.10
8043;DHT22;4064;48.132;11.366;2023-06-19T15:24:56;30.40;45.80
8043;DHT22;4064;48.132;11.366;2023-06-19T15:27:22;30.20;45.90
8043;DHT22;4064;48.132;11.366;2023-06-19T15:29:48;30.50;44.40
8043;DHT22;4064;48.132;11.366;2023-06-19T15:32:13;30.30;44.60
8043;DHT22;4064;48.132;11.366;2023-06-19T15:34:39;30.30;45.10
8043;DHT22;4064;48.132;11.366;2023-06-19T15:37:06;30.30;44.70
8043;DHT22;4064;48.132;11.366;2023-06-19T15:39:32;30.40;45.40
8043;DHT22;4064;48.132;11.366;2023-06-19T15:41:57;30.30;45.40
8043;DHT22;4064;48.132;11.366;2023-06-19T15:44:23;30.30;45.70
8043;DHT22;4064;48.132;11.366;2023-06-19T15:46:49;30.10;45.90